Hoople, North Dakota
Current Conditions -  °F | °C
As of 3:35 AM on Thursday 18 Dec 2014 (Local Time) from K2C8 Reporting Station
Clear Clear  
Wind Chill: -6°   Ceiling: Unl
Heat Index:   Visibility: 10mi
Dew Point:   Wind: 6mph
Humidity: 85%   Direction: 200°SSW
Pressure: 30.28"   Gusts: NA
Location:  48.53°N, 97.63°W
Report Text: K2C8 180935Z AUTO 20005KT 10SM CLR M15/M17 A3028 RMK AO2
Loading
Personal Weather Stations






























Interactive Weather Map New forecast layout! Learn more

10-Day Weather Forecast

Advertisements
Track Severe Weather on mobile